Time;durP1;ratioP1;P1;durP2;ratioP2;P2;SDS_P1;SDS_P2;PMS_P1;PMS_P2;Temp;Humidity;BMP_temperature;BMP_pressure;BME280_temperature;BME280_humidity;BME280_pressure;Samples;Min_cycle;Max_cycle;Signal;HPM_P1;HPM_P2
2021/07/27 00:01:12;;;;;;;6.77;4.00;;;;;;;14.10;94.79;96520.53;3568538;40;20538;-73
2021/07/27 00:03:40;;;;;;;6.77;4.23;;;;;;;14.17;95.88;96516.41;3567852;40;20844;-73
2021/07/27 00:06:10;;;;;;;7.20;4.07;;;;;;;14.28;95.11;96512.03;3566438;40;20499;-73
2021/07/27 00:08:39;;;;;;;9.70;4.23;;;;;;;14.31;95.03;96512.59;3567441;40;20817;-74
2021/07/27 00:11:10;;;;;;;9.97;3.97;;;;;;;14.29;94.95;96516.31;3568056;40;20491;-73
2021/07/27 00:13:39;;;;;;;9.30;3.27;;;;;;;14.28;94.16;96506.75;3564841;40;20860;-73
2021/07/27 00:16:07;;;;;;;6.30;3.70;;;;;;;14.08;94.65;96503.19;3566323;40;20928;-74
2021/07/27 00:18:36;;;;;;;21.43;4.30;;;;;;;14.07;94.83;96504.13;3559151;40;20799;-73
2021/07/27 00:21:05;;;;;;;4.90;3.37;;;;;;;14.07;94.72;96501.50;3564708;40;20571;-73
2021/07/27 00:23:34;;;;;;;9.10;3.70;;;;;;;13.93;94.88;96503.50;3567108;40;20459;-73
2021/07/27 00:26:04;;;;;;;15.97;3.90;;;;;;;13.93;95.01;96500.88;3565080;40;20857;-73
2021/07/27 00:28:34;;;;;;;10.30;3.67;;;;;;;13.94;95.31;96501.72;3556207;40;20896;-73
2021/07/27 00:31:02;;;;;;;6.57;4.07;;;;;;;13.85;94.91;96506.75;3565352;40;20784;-73
2021/07/27 00:33:30;;;;;;;6.63;4.03;;;;;;;13.85;95.26;96495.41;3569508;40;20908;-73
2021/07/27 00:36:00;;;;;;;6.80;3.30;;;;;;;13.82;94.82;96501.78;3569220;40;20814;-74
2021/07/27 00:38:28;;;;;;;7.00;4.47;;;;;;;13.83;95.22;96494.69;3571335;40;20543;-73
2021/07/27 00:40:55;;;;;;;4.47;3.40;;;;;;;13.88;94.79;96495.16;3554060;40;20536;-73
2021/07/27 00:43:24;;;;;;;5.80;3.70;;;;;;;13.83;94.83;96490.25;3559118;40;20558;-74
2021/07/27 00:45:53;;;;;;;11.37;4.10;;;;;;;13.75;95.35;96484.81;3550807;40;20454;-75
2021/07/27 00:48:21;;;;;;;11.23;4.50;;;;;;;13.74;95.28;96491.06;3561462;40;20547;-74
2021/07/27 00:50:49;;;;;;;6.13;3.27;;;;;;;13.74;95.02;96491.06;3568738;40;20507;-74
2021/07/27 00:53:19;;;;;;;5.00;4.00;;;;;;;13.68;94.39;96499.47;3569208;40;20473;-74
2021/07/27 00:55:48;;;;;;;10.53;3.70;;;;;;;13.63;94.89;96497.19;3565079;40;20910;-73
2021/07/27 00:58:15;;;;;;;8.40;3.70;;;;;;;13.65;94.92;96504.97;3568789;40;20947;-74
2021/07/27 01:00:43;;;;;;;9.73;3.87;;;;;;;13.71;94.33;96504.47;3569921;40;20464;-73
2021/07/27 01:03:14;;;;;;;5.37;3.40;;;;;;;13.58;94.50;96501.16;3568753;40;20713;-75
2021/07/27 01:05:42;;;;;;;8.80;3.87;;;;;;;13.37;94.79;96506.41;3556312;40;20477;-74
2021/07/27 01:08:09;;;;;;;9.93;4.03;;;;;;;13.41;95.07;96497.31;3567848;40;20450;-75
2021/07/27 01:10:37;;;;;;;8.43;4.13;;;;;;;13.42;95.26;96493.69;3568730;40;21103;-74
2021/07/27 01:13:06;;;;;;;7.67;4.70;;;;;;;13.45;95.07;96496.91;3566137;40;20434;-75
2021/07/27 01:15:33;;;;;;;6.93;3.77;;;;;;;13.43;95.15;96488.31;3567918;40;21043;-74
2021/07/27 01:18:05;;;;;;;12.30;4.60;;;;;;;13.31;95.65;96491.97;3566306;40;20853;-73
2021/07/27 01:20:46;;;;;;;7.60;3.80;;;;;;;13.29;95.65;96482.47;3567710;40;20489;-74
2021/07/27 01:37:34;;;;;;;10.33;3.83;;;;;;;13.29;94.82;96498.25;3556630;40;20842;-74
2021/07/27 01:40:04;;;;;;;6.33;3.70;;;;;;;13.33;94.63;96494.44;3566095;40;20561;-74
2021/07/27 01:42:38;;;;;;;7.63;3.70;;;;;;;13.26;94.71;96492.28;3566737;40;20694;-74
2021/07/27 01:45:17;;;;;;;7.40;3.63;;;;;;;13.42;94.51;96494.53;3566282;40;20819;-73
2021/07/27 01:47:45;;;;;;;15.80;4.47;;;;;;;13.39;94.67;96494.78;3572144;40;20441;-74
2021/07/27 01:50:17;;;;;;;6.77;3.77;;;;;;;13.43;93.92;96495.38;3560963;40;20687;-74
2021/07/27 01:52:49;;;;;;;12.10;4.37;;;;;;;13.47;94.31;96495.97;3569828;40;20917;-74
2021/07/27 01:55:20;;;;;;;6.87;3.83;;;;;;;13.48;94.06;96495.81;3567703;40;20539;-73
2021/07/27 01:57:48;;;;;;;7.23;4.37;;;;;;;13.43;94.42;96495.38;3567688;40;20432;-72
2021/07/27 02:00:17;;;;;;;11.30;3.87;;;;;;;13.39;94.20;96496.59;3568159;40;21005;-73
2021/07/27 02:02:46;;;;;;;17.40;4.20;;;;;;;13.34;94.76;96501.38;3569782;40;20822;-74
2021/07/27 02:05:15;;;;;;;11.83;4.23;;;;;;;13.29;95.33;96506.13;3572479;40;20470;-76
2021/07/27 02:07:53;;;;;;;6.63;4.07;;;;;;;13.36;95.12;96513.44;3567287;40;20468;-75
2021/07/27 02:10:23;;;;;;;12.53;4.77;;;;;;;13.33;94.76;96507.59;3562414;40;20885;-74
2021/07/27 02:12:52;;;;;;;12.10;4.63;;;;;;;13.23;95.14;96497.81;3560283;40;20484;-75
2021/07/27 02:15:23;;;;;;;7.37;3.70;;;;;;;13.32;94.08;96511.19;3570699;40;20481;-75
2021/07/27 02:17:51;;;;;;;6.03;4.27;;;;;;;13.36;94.56;96515.25;3569011;40;20815;-75
2021/07/27 02:20:19;;;;;;;5.40;3.97;;;;;;;13.38;94.45;96514.16;3567293;40;20783;-75
2021/07/27 02:22:47;;;;;;;6.33;4.67;;;;;;;13.40;95.28;96514.03;3552924;40;20975;-74
2021/07/27 02:25:15;;;;;;;9.23;4.50;;;;;;;13.46;95.69;96516.16;3568666;40;20849;-73
2021/07/27 02:27:44;;;;;;;9.90;5.00;;;;;;;13.73;95.30;96512.22;3558928;40;20487;-74
2021/07/27 02:30:13;;;;;;;8.70;4.97;;;;;;;13.83;94.87;96510.50;3557253;40;20634;-73
2021/07/27 02:32:43;;;;;;;7.40;4.77;;;;;;;13.87;95.34;96508.44;3566524;40;20846;-75
2021/07/27 02:35:11;;;;;;;10.23;4.90;;;;;;;13.85;95.06;96508.56;3566613;40;21011;-75
2021/07/27 02:37:39;;;;;;;8.50;4.40;;;;;;;13.74;95.47;96504.22;3568318;40;20441;-74
2021/07/27 02:40:10;;;;;;;11.40;4.40;;;;;;;13.76;95.39;96501.44;3572367;40;20570;-73
2021/07/27 02:42:38;;;;;;;9.10;4.73;;;;;;;13.75;94.93;96505.03;3549869;40;20462;-73
2021/07/27 02:45:08;;;;;;;10.63;4.73;;;;;;;13.76;95.44;96504.91;3569878;40;21269;-72
2021/07/27 02:47:37;;;;;;;10.37;4.73;;;;;;;13.87;94.89;96498.75;3566330;40;20926;-74
2021/07/27 02:50:06;;;;;;;10.83;5.50;;;;;;;13.84;94.76;96506.91;3566168;40;20902;-75
2021/07/27 02:52:34;;;;;;;13.73;5.30;;;;;;;13.99;94.48;96508.25;3568000;40;21161;-75
2021/07/27 02:55:02;;;;;;;13.00;5.00;;;;;;;13.96;94.22;96510.31;3570575;40;20850;-72
2021/07/27 02:57:30;;;;;;;9.40;3.40;;;;;;;13.81;94.90;96515.06;3567101;40;20752;-75
2021/07/27 02:59:59;;;;;;;6.53;4.43;;;;;;;14.07;93.72;96515.50;3566658;40;20446;-73
2021/07/27 03:02:31;;;;;;;22.70;4.70;;;;;;;14.06;93.74;96518.28;3571067;40;21078;-72
2021/07/27 03:04:59;;;;;;;13.63;4.53;;;;;;;14.12;94.00;96523.84;3570337;40;20829;-73
2021/07/27 03:07:34;;;;;;;8.33;4.60;;;;;;;14.17;93.42;96523.47;3568373;40;20712;-73
2021/07/27 03:10:18;;;;;;;11.37;5.10;;;;;;;14.21;92.94;96519.59;3569538;40;20469;-75
2021/07/27 03:12:46;;;;;;;12.30;4.60;;;;;;;14.15;92.85;96517.50;3570856;40;20811;-73
2021/07/27 03:15:15;;;;;;;9.10;5.40;;;;;;;14.13;93.28;96522.03;3569975;40;20473;-75
2021/07/27 03:17:44;;;;;;;16.67;4.87;;;;;;;14.13;93.41;96519.41;3569173;40;20522;-72
2021/07/27 03:20:15;;;;;;;17.97;4.97;;;;;;;14.09;93.03;96529.38;3567498;40;20575;-74
2021/07/27 03:22:43;;;;;;;7.43;4.93;;;;;;;14.19;93.20;96524.16;3569334;40;20526;-76
2021/07/27 03:25:14;;;;;;;10.70;6.03;;;;;;;14.15;92.97;96522.75;3559817;40;20469;-73
2021/07/27 03:27:43;;;;;;;10.03;4.60;;;;;;;14.13;92.96;96527.31;3566619;40;20552;-74
2021/07/27 03:30:12;;;;;;;13.70;5.33;;;;;;;14.11;93.41;96531.88;3567612;40;20829;-74
2021/07/27 03:32:41;;;;;;;11.73;5.00;;;;;;;14.03;93.75;96528.13;3570971;40;20869;-73
2021/07/27 03:35:12;;;;;;;10.30;5.90;;;;;;;13.96;94.08;96529.56;3552419;40;20819;-73
2021/07/27 03:37:39;;;;;;;13.57;5.80;;;;;;;13.98;94.37;96526.81;3569264;40;20449;-72
2021/07/27 03:40:08;;;;;;;11.80;5.00;;;;;;;13.99;94.43;96521.41;3567791;40;20571;-73
2021/07/27 03:42:36;;;;;;;16.33;6.37;;;;;;;13.85;95.01;96522.56;3566150;40;20771;-73
2021/07/27 03:45:05;;;;;;;9.30;5.50;;;;;;;13.86;94.63;96526.03;3558341;40;20556;-73
2021/07/27 03:47:33;;;;;;;16.57;5.20;;;;;;;13.81;95.13;96526.41;3568774;40;20837;-74
2021/07/27 03:50:01;;;;;;;12.20;7.47;;;;;;;13.77;95.43;96526.81;3566860;40;20708;-73
2021/07/27 03:52:30;;;;;;;7.03;5.33;;;;;;;13.74;95.18;96521.78;3568117;40;20442;-72
2021/07/27 03:54:58;;;;;;;11.80;5.43;;;;;;;13.65;95.56;96524.22;3567053;40;21112;-73
2021/07/27 03:57:25;;;;;;;9.20;5.70;;;;;;;13.59;95.70;96516.84;3557577;40;20875;-72
2021/07/27 03:59:54;;;;;;;16.03;5.67;;;;;;;13.60;95.42;96515.88;3565373;40;20469;-74
2021/07/27 04:02:22;;;;;;;8.27;5.13;;;;;;;13.60;95.88;96513.25;3560936;40;21295;-74
2021/07/27 04:04:50;;;;;;;10.37;5.63;;;;;;;13.60;95.92;96510.63;3570157;40;20589;-75
2021/07/27 04:07:18;;;;;;;7.90;5.27;;;;;;;13.48;96.47;96508.97;3567774;40;21134;-73
2021/07/27 04:09:47;;;;;;;17.70;5.60;;;;;;;13.41;96.21;96507.81;3565442;40;20488;-75
2021/07/27 04:12:15;;;;;;;10.53;5.83;;;;;;;13.39;96.51;96504.50;3567357;40;21192;-73
2021/07/27 04:14:43;;;;;;;11.17;5.70;;;;;;;13.38;96.09;96501.00;3566106;40;20958;-75
2021/07/27 04:17:11;;;;;;;9.13;5.30;;;;;;;13.49;96.00;96510.66;3570413;40;20967;-76
2021/07/27 04:19:39;;;;;;;7.57;5.10;;;;;;;13.55;95.58;96512.78;3567725;40;20867;-76
2021/07/27 04:22:07;;;;;;;18.03;6.07;;;;;;;13.63;95.25;96509.53;3554210;40;20773;-74
2021/07/27 04:24:35;;;;;;;13.33;5.50;;;;;;;13.67;94.67;96504.84;3557038;39;20517;-75
2021/07/27 04:27:04;;;;;;;23.53;6.40;;;;;;;13.75;95.11;96513.75;3558498;40;20707;-76
2021/07/27 04:29:32;;;;;;;9.67;5.30;;;;;;;13.88;93.96;96504.84;3556127;40;20458;-75
2021/07/27 04:32:00;;;;;;;7.83;4.80;;;;;;;13.85;93.74;96498.03;3559350;40;20462;-75
2021/07/27 04:34:28;;;;;;;7.20;5.20;;;;;;;13.79;94.09;96509.09;3554833;39;20842;-75
2021/07/27 04:36:56;;;;;;;9.93;4.80;;;;;;;13.85;94.08;96506.75;3558159;40;20465;-74
2021/07/27 04:39:24;;;;;;;10.40;5.40;;;;;;;13.94;94.08;96507.81;3556801;40;20536;-75
2021/07/27 04:41:52;;;;;;;6.93;4.80;;;;;;;13.92;93.98;96503.66;3558216;40;20467;-75
2021/07/27 04:44:21;;;;;;;9.20;5.80;;;;;;;14.00;93.49;96496.75;3558251;40;20881;-75
2021/07/27 04:46:49;;;;;;;9.20;5.67;;;;;;;14.14;93.63;96507.94;3556666;40;20554;-73
2021/07/27 04:49:17;;;;;;;14.40;5.43;;;;;;;14.15;93.51;96509.59;3557714;40;21198;-73
2021/07/27 04:51:45;;;;;;;6.73;4.83;;;;;;;14.21;93.48;96502.03;3557910;40;20488;-74
2021/07/27 04:54:16;;;;;;;10.03;5.60;;;;;;;14.31;92.91;96498.56;3559118;40;20827;-74
2021/07/27 04:56:43;;;;;;;8.67;6.17;;;;;;;14.36;93.56;96505.13;3558989;40;20864;-73
2021/07/27 04:59:11;;;;;;;10.60;5.20;;;;;;;14.44;92.44;96505.34;3557923;40;20874;-75
2021/07/27 05:01:41;;;;;;;7.70;5.40;;;;;;;14.49;91.91;96493.56;3558036;40;20459;-74
2021/07/27 05:04:09;;;;;;;7.53;4.77;;;;;;;14.69;90.56;96494.50;3559274;40;20917;-74
2021/07/27 05:06:38;;;;;;;8.90;4.90;;;;;;;14.61;92.76;96497.78;3556640;40;20465;-74
2021/07/27 05:09:06;;;;;;;11.10;5.70;;;;;;;14.55;93.74;96493.03;3560957;40;21131;-74
2021/07/27 05:11:34;;;;;;;18.77;4.80;;;;;;;14.64;93.44;96486.97;3559973;40;20455;-74
2021/07/27 05:14:02;;;;;;;10.37;5.30;;;;;;;14.82;92.35;96495.91;3560575;40;20471;-74
2021/07/27 05:16:30;;;;;;;9.50;5.43;;;;;;;14.90;92.41;96494.44;3558051;40;20952;-75
2021/07/27 05:19:22;;;;;;;16.97;5.80;;;;;;;14.96;92.75;96489.44;3561459;40;20457;-74
2021/07/27 05:21:54;;;;;;;9.63;5.13;;;;;;;15.11;92.31;96492.53;3567353;40;21284;-74
2021/07/27 05:24:22;;;;;;;7.70;5.40;;;;;;;15.22;91.72;96491.56;3568869;40;20587;-74
2021/07/27 05:26:50;;;;;;;7.50;5.20;;;;;;;15.23;91.86;96487.97;3569866;40;20457;-74
2021/07/27 05:29:19;;;;;;;7.07;4.23;;;;;;;15.31;91.82;96489.88;3570072;40;20523;-74
2021/07/27 05:31:47;;;;;;;12.40;5.67;;;;;;;15.46;91.49;96488.50;3570237;40;21184;-74
2021/07/27 05:34:15;;;;;;;17.70;5.77;;;;;;;15.61;90.97;96492.41;3569045;40;20426;-74
2021/07/27 05:36:45;;;;;;;6.70;4.97;;;;;;;15.58;91.98;96492.72;3569220;40;20841;-75
2021/07/27 05:39:14;;;;;;;8.40;4.97;;;;;;;15.84;90.20;96481.59;3569945;40;20938;-74
2021/07/27 05:41:42;;;;;;;9.23;5.00;;;;;;;16.13;84.71;96486.84;3572093;40;20871;-73
2021/07/27 05:44:10;;;;;;;7.50;4.67;;;;;;;16.28;83.87;96489.00;3556066;40;20940;-75
2021/07/27 05:46:38;;;;;;;8.13;4.83;;;;;;;16.60;84.03;96491.25;3560354;40;20769;-74
2021/07/27 05:49:09;;;;;;;11.00;5.67;;;;;;;16.65;84.35;96488.19;3567227;40;20668;-74
2021/07/27 05:51:37;;;;;;;6.83;5.17;;;;;;;16.72;83.47;96482.19;3568321;40;20487;-73
2021/07/27 05:54:06;;;;;;;10.20;5.30;;;;;;;16.67;83.79;96478.31;3566512;40;20466;-73
2021/07/27 05:56:34;;;;;;;7.47;5.20;;;;;;;16.64;83.53;96475.94;3554356;40;20462;-72
2021/07/27 05:59:02;;;;;;;7.97;4.90;;;;;;;16.80;83.86;96474.34;3569576;40;20458;-73
2021/07/27 06:01:30;;;;;;;7.10;4.27;;;;;;;16.82;82.84;96476.00;3569370;40;20574;-73
2021/07/27 06:03:58;;;;;;;71.37;43.23;;;;;;;17.08;82.25;96473.53;3561687;40;20908;-72
2021/07/27 06:06:30;;;;;;;12.30;5.40;;;;;;;17.17;81.85;96470.81;3572340;40;20430;-73
2021/07/27 06:09:00;;;;;;;7.40;5.13;;;;;;;17.17;82.30;96476.09;3566496;40;20465;-73
2021/07/27 06:11:30;;;;;;;13.27;5.13;;;;;;;17.27;83.24;96473.38;3570525;40;20454;-73
2021/07/27 06:14:00;;;;;;;8.17;5.67;;;;;;;17.42;82.22;96480.78;3564523;40;20484;-74
2021/07/27 06:16:28;;;;;;;11.03;5.70;;;;;;;17.47;82.64;96479.38;3568370;40;20449;-72
2021/07/27 06:18:56;;;;;;;7.57;4.60;;;;;;;17.32;82.31;96478.22;3559351;40;20546;-75
2021/07/27 06:21:24;;;;;;;12.67;5.67;;;;;;;17.31;83.61;96481.88;3561804;40;20521;-72
2021/07/27 06:23:52;;;;;;;11.27;5.20;;;;;;;17.28;82.93;96474.22;3570402;40;20458;-73
2021/07/27 06:26:20;;;;;;;22.17;4.77;;;;;;;17.18;82.65;96475.09;3568122;40;20484;-74
2021/07/27 06:28:49;;;;;;;11.80;5.33;;;;;;;16.99;83.22;96477.88;3569398;40;20769;-73
2021/07/27 06:31:17;;;;;;;9.27;5.90;;;;;;;16.79;84.44;96477.94;3562711;40;20577;-73
2021/07/27 06:33:46;;;;;;;13.60;5.83;;;;;;;17.28;82.64;96482.16;3569099;40;20846;-73
2021/07/27 06:36:15;;;;;;;16.47;7.77;;;;;;;17.24;82.76;96473.69;3569954;40;20507;-72
2021/07/27 06:38:42;;;;;;;7.63;5.50;;;;;;;17.13;82.12;96485.31;3568384;40;20503;-73
2021/07/27 06:41:12;;;;;;;6.90;4.40;;;;;;;17.40;79.91;96470.34;3569803;40;20644;-73
2021/07/27 06:43:42;;;;;;;6.60;5.13;;;;;;;17.95;79.43;96485.25;3553063;40;20432;-74
2021/07/27 06:46:12;;;;;;;8.90;4.50;;;;;;;17.86;79.65;96480.91;3559032;40;20752;-73
2021/07/27 06:48:40;;;;;;;6.97;5.00;;;;;;;18.03;77.98;96485.31;3563403;40;20758;-75
2021/07/27 06:51:10;;;;;;;8.30;4.93;;;;;;;18.49;75.71;96495.72;3568555;40;20466;-73
2021/07/27 06:53:38;;;;;;;9.17;5.13;;;;;;;18.06;77.46;96486.84;3568443;40;20463;-73
2021/07/27 06:56:07;;;;;;;8.27;5.57;;;;;;;17.84;79.60;96482.84;3567895;40;20454;-73
2021/07/27 06:58:35;;;;;;;14.83;5.23;;;;;;;18.29;78.33;96487.97;3566623;40;20473;-73
2021/07/27 07:01:04;;;;;;;14.40;5.80;;;;;;;18.50;76.79;96492.91;3571504;40;20547;-75
2021/07/27 07:03:34;;;;;;;9.57;5.13;;;;;;;18.68;75.57;96503.44;3561423;40;20453;-73
2021/07/27 07:06:03;;;;;;;13.90;5.50;;;;;;;19.05;76.13;96499.66;3571352;40;20462;-72
2021/07/27 07:08:31;;;;;;;6.57;4.70;;;;;;;19.51;72.73;96500.06;3568923;40;20940;-73
2021/07/27 07:11:00;;;;;;;9.53;4.40;;;;;;;19.35;73.88;96495.56;3560922;40;20879;-74
2021/07/27 07:13:28;;;;;;;16.40;10.50;;;;;;;19.42;73.16;96511.66;3548316;40;20750;-73
2021/07/27 07:15:56;;;;;;;34.40;19.53;;;;;;;19.28;74.00;96502.50;3568407;40;20948;-73
2021/07/27 07:18:24;;;;;;;9.93;5.73;;;;;;;18.99;74.44;96502.91;3571530;40;20710;-73
2021/07/27 07:20:54;;;;;;;9.40;5.20;;;;;;;19.09;72.37;96506.28;3569481;40;20853;-73
2021/07/27 07:23:22;;;;;;;7.00;4.80;;;;;;;19.69;71.75;96510.56;3568984;40;21184;-72
2021/07/27 07:25:50;;;;;;;8.33;4.53;;;;;;;19.87;72.63;96510.44;3569551;40;20487;-73
2021/07/27 07:28:20;;;;;;;12.23;5.30;;;;;;;19.66;71.64;96510.91;3566607;40;20753;-72
2021/07/27 07:30:48;;;;;;;9.73;5.10;;;;;;;19.82;71.66;96502.13;3566539;40;20446;-74
2021/07/27 07:33:16;;;;;;;7.93;4.73;;;;;;;19.75;71.28;96498.47;3569060;40;20473;-72
2021/07/27 07:35:44;;;;;;;7.23;4.30;;;;;;;19.89;71.81;96502.28;3569392;40;20755;-71
2021/07/27 07:38:14;;;;;;;14.03;4.87;;;;;;;19.71;72.03;96491.81;3565524;40;20889;-71
2021/07/27 07:40:42;;;;;;;9.97;4.53;;;;;;;20.73;70.43;96501.03;3567984;40;21109;-72
2021/07/27 07:43:10;;;;;;;6.03;4.57;;;;;;;21.00;66.11;96509.59;3558053;40;20744;-72
2021/07/27 07:45:38;;;;;;;7.13;4.17;;;;;;;21.10;65.89;96506.72;3561104;40;20943;-71
2021/07/27 07:48:06;;;;;;;8.50;4.40;;;;;;;21.83;65.28;96508.13;3566802;40;20481;-73
2021/07/27 07:50:35;;;;;;;9.33;4.70;;;;;;;21.89;64.75;96503.91;3568667;40;20465;-73
2021/07/27 07:53:04;;;;;;;5.50;4.33;;;;;;;21.60;63.81;96504.63;3567608;40;20825;-72
2021/07/27 07:55:34;;;;;;;8.80;4.13;;;;;;;21.89;63.14;96511.91;3567578;40;20846;-73
2021/07/27 07:58:02;;;;;;;6.57;5.03;;;;;;;20.98;64.42;96508.09;3570100;40;21138;-72
2021/07/27 08:00:30;;;;;;;8.40;5.70;;;;;;;21.26;62.32;96505.81;3568553;40;20877;-72
2021/07/27 08:03:01;;;;;;;9.37;5.87;;;;;;;20.94;60.51;96510.28;3569113;40;20698;-72
2021/07/27 08:05:30;;;;;;;6.90;5.10;;;;;;;21.44;60.04;96510.88;3569802;40;20507;-73
2021/07/27 08:07:58;;;;;;;8.13;4.17;;;;;;;21.41;59.32;96512.03;3570515;40;20529;-72
2021/07/27 08:10:26;;;;;;;10.10;5.20;;;;;;;22.25;57.60;96516.66;3568571;40;20855;-72
2021/07/27 08:12:55;;;;;;;6.20;4.80;;;;;;;21.48;57.96;96512.19;3570928;40;20476;-72
2021/07/27 08:15:26;;;;;;;8.63;4.60;;;;;;;21.35;60.90;96518.06;3570684;40;20560;-72
2021/07/27 08:17:54;;;;;;;10.10;4.70;;;;;;;21.26;59.35;96519.13;3569611;40;20543;-72
2021/07/27 08:20:23;;;;;;;10.60;4.80;;;;;;;21.95;58.09;96508.53;3569623;40;20477;-72
2021/07/27 08:22:53;;;;;;;8.80;5.00;;;;;;;22.20;57.58;96501.16;3574868;40;20873;-72
2021/07/27 08:25:22;;;;;;;7.20;5.17;;;;;;;22.49;56.75;96510.25;3569629;40;20443;-72
2021/07/27 08:27:50;;;;;;;5.60;4.80;;;;;;;22.30;57.31;96507.06;3569408;40;20842;-73
2021/07/27 08:30:19;;;;;;;8.53;5.03;;;;;;;22.24;57.06;96510.47;3568741;40;20659;-72
2021/07/27 08:32:48;;;;;;;7.50;4.60;;;;;;;23.34;54.03;96511.59;3558949;40;21112;-72
2021/07/27 08:35:18;;;;;;;6.83;4.80;;;;;;;23.23;54.70;96510.25;3567107;40;20527;-72
2021/07/27 08:37:46;;;;;;;6.47;4.90;;;;;;;22.54;57.58;96510.50;3570017;40;20521;-72
2021/07/27 08:40:17;;;;;;;9.30;5.57;;;;;;;22.14;61.10;96515.22;3558306;40;20694;-72
2021/07/27 08:42:46;;;;;;;7.30;5.30;;;;;;;22.19;60.52;96512.84;3568349;40;20471;-72
2021/07/27 08:45:15;;;;;;;9.23;5.20;;;;;;;22.64;61.70;96512.91;3553252;40;20605;-72
2021/07/27 08:47:47;;;;;;;29.83;15.20;;;;;;;22.24;60.55;96512.28;3566272;40;21222;-72
2021/07/27 08:50:16;;;;;;;10.77;6.57;;;;;;;22.12;59.24;96519.91;3566271;40;20458;-72
2021/07/27 08:52:44;;;;;;;10.53;4.83;;;;;;;21.90;59.23;96517.06;3567036;40;20857;-73
2021/07/27 08:55:13;;;;;;;11.53;5.67;;;;;;;22.70;58.88;96512.22;3567658;39;20973;-73
2021/07/27 08:57:53;;;;;;;8.80;4.63;;;;;;;22.50;59.08;96526.09;3572362;40;20474;-73
2021/07/27 09:00:21;;;;;;;8.60;5.60;;;;;;;22.50;56.95;96526.09;3571088;40;20434;-72
2021/07/27 09:02:50;;;;;;;7.20;5.23;;;;;;;22.54;56.12;96521.19;3570510;40;20474;-72
2021/07/27 09:05:19;;;;;;;20.70;4.60;;;;;;;23.44;53.96;96512.16;3567248;40;20488;-72
2021/07/27 09:07:47;;;;;;;10.00;5.90;;;;;;;23.80;52.62;96505.16;3568312;40;20893;-72
2021/07/27 09:10:17;;;;;;;9.10;5.07;;;;;;;24.06;53.17;96510.72;3571171;40;20643;-73
2021/07/27 09:12:55;;;;;;;6.87;4.77;;;;;;;25.08;53.04;96499.69;3569423;40;20469;-73
2021/07/27 09:15:27;;;;;;;7.67;4.73;;;;;;;23.84;53.86;96501.88;3569948;40;20467;-73
2021/07/27 09:17:58;;;;;;;6.63;5.00;;;;;;;23.27;54.88;96500.84;3569023;40;20902;-72
2021/07/27 09:20:32;;;;;;;10.63;5.10;;;;;;;23.69;54.86;96498.41;3552360;40;21184;-73
2021/07/27 09:23:00;;;;;;;5.60;4.80;;;;;;;24.00;52.91;96499.97;3559600;40;20695;-72
2021/07/27 09:25:29;;;;;;;8.90;5.17;;;;;;;23.01;54.43;96498.66;3568984;40;20468;-73
2021/07/27 09:28:05;;;;;;;6.60;4.50;;;;;;;22.88;54.88;96507.31;3553352;40;20813;-73
2021/07/27 09:30:34;;;;;;;6.20;4.33;;;;;;;23.55;52.20;96500.13;3568978;40;20881;-72
2021/07/27 09:33:04;;;;;;;6.97;4.80;;;;;;;24.13;51.44;96500.09;3568503;40;20562;-73
2021/07/27 09:35:33;;;;;;;8.53;5.17;;;;;;;23.61;52.34;96490.53;3570277;40;20849;-72
2021/07/27 09:38:08;;;;;;;9.63;5.20;;;;;;;23.66;54.20;96501.47;3567734;40;20477;-73
2021/07/27 09:40:38;;;;;;;6.77;4.63;;;;;;;24.02;51.80;96503.28;3569026;40;20426;-73
2021/07/27 09:43:06;;;;;;;8.53;4.30;;;;;;;24.04;51.02;96504.75;3566572;40;20701;-73
2021/07/27 09:45:34;;;;;;;8.73;4.87;;;;;;;23.55;51.05;96513.50;3570711;40;20434;-73
2021/07/27 09:48:08;;;;;;;8.97;5.23;;;;;;;24.38;50.22;96500.47;3553320;40;20517;-73
2021/07/27 09:50:36;;;;;;;8.20;4.77;;;;;;;24.67;49.06;96501.31;3548886;40;20470;-73
2021/07/27 09:53:04;;;;;;;5.80;4.23;;;;;;;24.30;49.91;96497.13;3570985;40;20841;-72
2021/07/27 09:55:33;;;;;;;10.00;4.73;;;;;;;25.36;49.67;96504.97;3570774;40;20902;-73
2021/07/27 09:58:01;;;;;;;6.57;4.80;;;;;;;26.63;45.87;96492.56;3556898;40;20909;-74
2021/07/27 10:00:31;;;;;;;7.90;5.67;;;;;;;24.83;48.17;96492.97;3560725;40;20917;-74
2021/07/27 10:03:00;;;;;;;6.60;5.43;;;;;;;24.47;48.83;96490.47;3570110;40;20702;-73
2021/07/27 10:05:30;;;;;;;7.60;4.27;;;;;;;26.53;47.02;96482.22;3572858;40;20773;-73
2021/07/27 10:07:59;;;;;;;7.10;4.70;;;;;;;27.87;44.39;96476.34;3559988;40;20717;-73
2021/07/27 10:10:38;;;;;;;9.10;4.90;;;;;;;26.78;46.63;96486.97;3561014;40;20466;-73
2021/07/27 10:13:11;;;;;;;9.83;5.07;;;;;;;25.81;47.09;96476.63;3567976;40;20512;-73
2021/07/27 10:15:42;;;;;;;5.53;4.00;;;;;;;25.63;48.33;96479.06;3566815;40;20481;-73
2021/07/27 10:18:10;;;;;;;10.90;4.63;;;;;;;25.31;46.92;96484.16;3568945;40;20776;-73
2021/07/27 10:20:39;;;;;;;6.50;4.00;;;;;;;23.45;52.13;96489.75;3569334;40;20799;-72
2021/07/27 10:23:15;;;;;;;10.10;5.57;;;;;;;24.16;49.77;96486.31;3572880;40;20772;-73
2021/07/27 10:25:56;;;;;;;11.60;4.67;;;;;;;23.26;53.90;96487.69;3566062;40;21159;-73
2021/07/27 10:28:26;;;;;;;4.93;4.03;;;;;;;23.75;52.65;96481.59;3568801;40;20893;-72
2021/07/27 10:31:05;;;;;;;7.07;3.90;;;;;;;25.58;48.89;96486.88;3569420;40;21122;-74
2021/07/27 10:33:33;;;;;;;4.20;3.70;;;;;;;26.52;46.95;96472.53;3558261;40;20469;-73
2021/07/27 10:36:03;;;;;;;6.80;4.73;;;;;;;27.01;43.82;96465.81;3558891;40;20995;-73
2021/07/27 10:38:41;;;;;;;5.40;4.23;;;;;;;26.84;45.32;96475.38;3565975;40;20459;-73
2021/07/27 10:41:16;;;;;;;4.47;3.90;;;;;;;24.08;49.41;96476.59;3568817;40;20468;-72
2021/07/27 10:43:45;;;;;;;7.47;4.30;;;;;;;25.90;47.00;96482.63;3565610;40;21182;-72
2021/07/27 10:46:13;;;;;;;7.50;4.40;;;;;;;25.64;44.14;96470.84;3568445;40;20825;-73
2021/07/27 10:48:42;;;;;;;7.10;4.50;;;;;;;25.90;44.77;96469.22;3567954;40;21388;-73
2021/07/27 10:51:11;;;;;;;7.47;3.77;;;;;;;26.57;43.09;96472.72;3568864;40;20836;-72
2021/07/27 10:53:44;;;;;;;6.20;3.73;;;;;;;25.29;46.18;96466.63;3565630;40;20559;-73
2021/07/27 10:56:12;;;;;;;7.40;4.27;;;;;;;26.71;44.74;96467.34;3567752;40;20931;-73
2021/07/27 10:58:46;;;;;;;7.13;3.80;;;;;;;25.38;46.75;96460.88;3558380;40;20468;-72
2021/07/27 11:01:14;;;;;;;6.00;4.97;;;;;;;26.28;44.86;96468.63;3567252;40;20446;-72
2021/07/27 11:03:42;;;;;;;6.73;4.60;;;;;;;25.44;44.31;96457.41;3567792;40;20457;-73
2021/07/27 11:06:11;;;;;;;6.70;4.30;;;;;;;25.52;47.14;96469.78;3561116;40;20482;-72
2021/07/27 11:08:39;;;;;;;5.53;4.03;;;;;;;25.75;47.75;96465.91;3566136;40;20539;-72
2021/07/27 11:11:10;;;;;;;8.67;4.30;;;;;;;24.76;51.39;96472.56;3575753;40;20843;-73
2021/07/27 11:13:38;;;;;;;7.60;4.93;;;;;;;24.22;54.90;96469.50;3575654;40;20473;-74
2021/07/27 11:16:08;;;;;;;9.03;4.60;;;;;;;24.02;57.79;96468.53;3566825;40;20944;-73
2021/07/27 11:18:36;;;;;;;6.33;4.37;;;;;;;23.21;59.93;96466.88;3550911;40;20818;-73
2021/07/27 11:21:08;;;;;;;7.80;5.20;;;;;;;23.46;59.17;96456.69;3568336;40;20466;-72
2021/07/27 11:23:40;;;;;;;10.50;5.70;;;;;;;23.75;59.95;96462.91;3558446;40;20811;-73
2021/07/27 11:26:08;;;;;;;11.30;5.90;;;;;;;24.00;59.04;96460.69;3571429;40;20439;-73
2021/07/27 11:28:37;;;;;;;7.30;5.10;;;;;;;23.82;57.85;96466.50;3569223;40;20498;-73
2021/07/27 11:31:17;;;;;;;13.03;4.63;;;;;;;24.01;58.03;96459.69;3571625;40;20451;-73
2021/07/27 11:33:49;;;;;;;6.53;5.10;;;;;;;24.15;57.07;96454.41;3571377;40;20480;-74
2021/07/27 11:36:25;;;;;;;9.97;6.50;;;;;;;24.14;56.98;96453.59;3569288;40;20448;-73
2021/07/27 11:39:04;;;;;;;9.33;5.50;;;;;;;23.99;55.96;96444.81;3571421;40;21151;-73
2021/07/27 11:41:32;;;;;;;12.33;7.10;;;;;;;23.96;55.38;96439.88;3569204;40;20454;-73
2021/07/27 11:44:00;;;;;;;16.37;10.77;;;;;;;23.80;57.83;96433.78;3568564;40;20505;-73
2021/07/27 11:46:31;;;;;;;8.30;5.47;;;;;;;24.05;56.75;96434.19;3569171;40;20450;-73
2021/07/27 11:48:59;;;;;;;6.60;5.47;;;;;;;24.10;57.12;96424.75;3564748;40;20484;-73
2021/07/27 11:51:31;;;;;;;14.00;4.73;;;;;;;24.12;55.03;96431.56;3565599;40;20547;-73
2021/07/27 11:54:01;;;;;;;6.60;5.20;;;;;;;24.85;53.96;96432.03;3570288;40;20554;-74
2021/07/27 11:56:29;;;;;;;8.50;5.20;;;;;;;24.91;52.43;96426.88;3570848;40;20462;-72